UKWW/VIN METAR and TAF weather

Enter ICAO airport designator
Station Type Date Time Source
UKWW METAR 2022/01/27 18:00 UTC NOAA

UKWW 271800Z 23004MPS 9999 OVC012 00/M01 Q1012 NOSIG


Station Type Date Time Source
UKWW Decoded METAR 2022/01/27 18:00 UTC NOAA

Station name not available
Jan 27, 2022 - 01:00 PM EST / 2022.01.27 1800 UTC
Wind: from the SW (230 degrees) at 9 MPH (8 KT):0
Visibility: greater than 7 mile(s):0
Sky conditions: overcast
Temperature: 32 F (0 C)
Windchill: 24 F (-4 C):1
Dew Point: 30 F (-1 C)
Relative Humidity: 92%
Pressure (altimeter): 29.88 in. Hg (1012 hPa)
ob: UKWW 271800Z 23004MPS 9999 OVC012 00/M01 Q1012 NOSIG
cycle: 18

Station Type Date Time Source
UKWW TAF 2010/03/21 10:45 UTC NOAA

TAF UKWW 211045Z 2112/2212 24005G10MPS 9999 SCT020 BKN070
TEMPO 2115/2207 1400 -SHRA BR SCT004 BKN007CB
FM220700 34007G12MPS 9999 SCT015 BKN100 TX11/2112Z TN01/2204Z

Example: see airport list